sensor_id;sensor_type;location;lat;lon;timestamp;temperature;humidity
38221;DHT22;24023;51.280;7.148;2023-03-14T00:00:14;10.7;77.3
38221;DHT22;24023;51.280;7.148;2023-03-14T00:05:08;10.7;77.3
38221;DHT22;24023;51.280;7.148;2023-03-14T00:10:10;10.7;76.8
38221;DHT22;24023;51.280;7.148;2023-03-14T00:15:09;10.7;76.8
38221;DHT22;24023;51.280;7.148;2023-03-14T00:20:10;10.6;76.7
38221;DHT22;24023;51.280;7.148;2023-03-14T00:25:08;10.6;76.7
38221;DHT22;24023;51.280;7.148;2023-03-14T00:30:10;10.6;76.7
38221;DHT22;24023;51.280;7.148;2023-03-14T00:35:07;10.7;76.9
38221;DHT22;24023;51.280;7.148;2023-03-14T00:40:09;10.7;76.9
38221;DHT22;24023;51.280;7.148;2023-03-14T00:45:10;10.6;77.0
38221;DHT22;24023;51.280;7.148;2023-03-14T00:50:09;10.6;77.0
38221;DHT22;24023;51.280;7.148;2023-03-14T00:55:06;10.6;77.0
38221;DHT22;24023;51.280;7.148;2023-03-14T01:00:13;10.7;76.4
38221;DHT22;24023;51.280;7.148;2023-03-14T01:05:07;10.3;87.2
38221;DHT22;24023;51.280;7.148;2023-03-14T01:10:09;10.3;89.6
38221;DHT22;24023;51.280;7.148;2023-03-14T01:15:08;9.8;88.0
38221;DHT22;24023;51.280;7.148;2023-03-14T01:20:12;9.8;88.0
38221;DHT22;24023;51.280;7.148;2023-03-14T01:25:09;9.4;87.9
38221;DHT22;24023;51.280;7.148;2023-03-14T01:30:11;9.4;87.9
38221;DHT22;24023;51.280;7.148;2023-03-14T01:35:07;9.2;89.7
38221;DHT22;24023;51.280;7.148;2023-03-14T01:40:10;9.2;89.7
38221;DHT22;24023;51.280;7.148;2023-03-14T01:46:13;9.2;89.7
38221;DHT22;24023;51.280;7.148;2023-03-14T01:50:09;9.1;90.2
38221;DHT22;24023;51.280;7.148;2023-03-14T01:55:09;9.1;90.2
38221;DHT22;24023;51.280;7.148;2023-03-14T02:00:14;9.2;90.0
38221;DHT22;24023;51.280;7.148;2023-03-14T02:05:07;9.2;90.0
38221;DHT22;24023;51.280;7.148;2023-03-14T02:10:09;9.2;90.0
38221;DHT22;24023;51.280;7.148;2023-03-14T02:15:09;9.2;90.0
38221;DHT22;24023;51.280;7.148;2023-03-14T02:20:17;9.2;90.0
38221;DHT22;24023;51.280;7.148;2023-03-14T02:25:09;9.2;89.6
38221;DHT22;24023;51.280;7.148;2023-03-14T02:30:13;9.2;89.6
38221;DHT22;24023;51.280;7.148;2023-03-14T02:35:10;9.2;90.0
38221;DHT22;24023;51.280;7.148;2023-03-14T02:40:09;9.2;90.0
38221;DHT22;24023;51.280;7.148;2023-03-14T02:46:14;9.2;87.7
38221;DHT22;24023;51.280;7.148;2023-03-14T02:50:11;9.2;87.7
38221;DHT22;24023;51.280;7.148;2023-03-14T02:55:07;9.2;87.9
38221;DHT22;24023;51.280;7.148;2023-03-14T03:00:12;9.2;87.9
38221;DHT22;24023;51.280;7.148;2023-03-14T03:05:07;9.3;87.9
38221;DHT22;24023;51.280;7.148;2023-03-14T03:10:09;9.3;87.9
38221;DHT22;24023;51.280;7.148;2023-03-14T03:15:08;9.3;87.9
38221;DHT22;24023;51.280;7.148;2023-03-14T03:20:10;9.3;87.5
38221;DHT22;24023;51.280;7.148;2023-03-14T03:25:08;9.3;87.5
38221;DHT22;24023;51.280;7.148;2023-03-14T03:30:10;9.4;86.7
38221;DHT22;24023;51.280;7.148;2023-03-14T03:35:07;9.4;86.7
38221;DHT22;24023;51.280;7.148;2023-03-14T03:40:09;9.4;86.7
38221;DHT22;24023;51.280;7.148;2023-03-14T03:45:10;9.5;87.9
38221;DHT22;24023;51.280;7.148;2023-03-14T03:50:09;9.2;90.1
38221;DHT22;24023;51.280;7.148;2023-03-14T03:55:08;9.2;90.1
38221;DHT22;24023;51.280;7.148;2023-03-14T04:00:13;9.2;90.1
38221;DHT22;24023;51.280;7.148;2023-03-14T04:05:08;8.8;91.7
38221;DHT22;24023;51.280;7.148;2023-03-14T04:10:09;8.8;91.7
38221;DHT22;24023;51.280;7.148;2023-03-14T04:15:08;8.8;91.7
38221;DHT22;24023;51.280;7.148;2023-03-14T04:20:11;8.9;91.5
38221;DHT22;24023;51.280;7.148;2023-03-14T04:25:07;9.0;91.1
38221;DHT22;24023;51.280;7.148;2023-03-14T04:30:10;9.0;91.1
38221;DHT22;24023;51.280;7.148;2023-03-14T04:35:07;9.0;91.1
38221;DHT22;24023;51.280;7.148;2023-03-14T04:40:09;9.0;91.5
38221;DHT22;24023;51.280;7.148;2023-03-14T04:45:09;9.0;91.5
38221;DHT22;24023;51.280;7.148;2023-03-14T04:50:09;9.0;90.9
38221;DHT22;24023;51.280;7.148;2023-03-14T04:55:07;9.1;90.4
38221;DHT22;24023;51.280;7.148;2023-03-14T05:00:12;9.1;90.4
38221;DHT22;24023;51.280;7.148;2023-03-14T05:05:07;9.1;90.4
38221;DHT22;24023;51.280;7.148;2023-03-14T05:10:09;8.9;90.6
38221;DHT22;24023;51.280;7.148;2023-03-14T05:15:08;8.9;90.6
38221;DHT22;24023;51.280;7.148;2023-03-14T05:20:10;9.0;90.3
38221;DHT22;24023;51.280;7.148;2023-03-14T05:25:09;9.0;90.3
38221;DHT22;24023;51.280;7.148;2023-03-14T05:30:10;9.1;90.4
38221;DHT22;24023;51.280;7.148;2023-03-14T05:35:07;9.1;90.4
38221;DHT22;24023;51.280;7.148;2023-03-14T05:40:10;9.1;90.4
38221;DHT22;24023;51.280;7.148;2023-03-14T05:45:11;9.0;90.7
38221;DHT22;24023;51.280;7.148;2023-03-14T05:50:08;9.0;90.7
38221;DHT22;24023;51.280;7.148;2023-03-14T05:55:07;9.1;90.5
38221;DHT22;24023;51.280;7.148;2023-03-14T06:00:12;9.1;90.5
38221;DHT22;24023;51.280;7.148;2023-03-14T06:05:07;9.1;90.5
38221;DHT22;24023;51.280;7.148;2023-03-14T06:10:10;9.0;90.4
38221;DHT22;24023;51.280;7.148;2023-03-14T06:15:09;9.0;90.4
38221;DHT22;24023;51.280;7.148;2023-03-14T06:20:09;9.2;90.0
38221;DHT22;24023;51.280;7.148;2023-03-14T06:25:08;9.2;90.0
38221;DHT22;24023;51.280;7.148;2023-03-14T06:30:10;9.2;90.0
38221;DHT22;24023;51.280;7.148;2023-03-14T06:35:07;9.2;90.1
38221;DHT22;24023;51.280;7.148;2023-03-14T06:40:09;9.2;90.1
38221;DHT22;24023;51.280;7.148;2023-03-14T06:45:09;9.2;90.4
38221;DHT22;24023;51.280;7.148;2023-03-14T06:50:09;9.2;90.4
38221;DHT22;24023;51.280;7.148;2023-03-14T06:55:07;9.2;90.4
38221;DHT22;24023;51.280;7.148;2023-03-14T07:00:13;9.1;90.4
38221;DHT22;24023;51.280;7.148;2023-03-14T07:05:07;9.1;90.4
38221;DHT22;24023;51.280;7.148;2023-03-14T07:10:10;9.2;90.1
38221;DHT22;24023;51.280;7.148;2023-03-14T07:15:09;9.2;90.1
38221;DHT22;24023;51.280;7.148;2023-03-14T07:20:10;9.4;90.0
38221;DHT22;24023;51.280;7.148;2023-03-14T07:25:07;9.4;90.0
38221;DHT22;24023;51.280;7.148;2023-03-14T07:30:10;9.4;90.0
38221;DHT22;24023;51.280;7.148;2023-03-14T07:35:07;9.5;90.3
38221;DHT22;24023;51.280;7.148;2023-03-14T07:40:09;9.5;90.3
38221;DHT22;24023;51.280;7.148;2023-03-14T07:45:11;9.3;90.5
38221;DHT22;24023;51.280;7.148;2023-03-14T07:50:09;9.3;90.5
38221;DHT22;24023;51.280;7.148;2023-03-14T07:55:07;9.3;90.5
38221;DHT22;24023;51.280;7.148;2023-03-14T08:00:12;9.5;90.4
38221;DHT22;24023;51.280;7.148;2023-03-14T08:05:07;9.5;90.4
38221;DHT22;24023;51.280;7.148;2023-03-14T08:10:09;9.6;90.5
38221;DHT22;24023;51.280;7.148;2023-03-14T08:15:09;9.6;90.5
38221;DHT22;24023;51.280;7.148;2023-03-14T08:20:10;9.6;90.5
38221;DHT22;24023;51.280;7.148;2023-03-14T08:25:07;9.5;90.9
38221;DHT22;24023;51.280;7.148;2023-03-14T08:30:12;9.5;90.9
38221;DHT22;24023;51.280;7.148;2023-03-14T08:35:08;9.7;90.8
38221;DHT22;24023;51.280;7.148;2023-03-14T08:40:10;9.7;90.8
38221;DHT22;24023;51.280;7.148;2023-03-14T08:45:12;9.8;90.9
38221;DHT22;24023;51.280;7.148;2023-03-14T08:50:11;9.8;90.9
38221;DHT22;24023;51.280;7.148;2023-03-14T08:55:07;9.8;90.9
38221;DHT22;24023;51.280;7.148;2023-03-14T09:00:16;10.0;90.7
38221;DHT22;24023;51.280;7.148;2023-03-14T09:05:08;10.0;90.7
38221;DHT22;24023;51.280;7.148;2023-03-14T09:10:10;10.0;91.3
38221;DHT22;24023;51.280;7.148;2023-03-14T09:15:09;10.0;91.3
38221;DHT22;24023;51.280;7.148;2023-03-14T09:20:10;10.0;91.3
38221;DHT22;24023;51.280;7.148;2023-03-14T09:25:07;9.9;91.6
38221;DHT22;24023;51.280;7.148;2023-03-14T09:30:10;9.9;91.6
38221;DHT22;24023;51.280;7.148;2023-03-14T09:35:07;9.8;92.1
38221;DHT22;24023;51.280;7.148;2023-03-14T09:40:13;9.8;92.1
38221;DHT22;24023;51.280;7.148;2023-03-14T09:45:14;9.8;92.1
38221;DHT22;24023;51.280;7.148;2023-03-14T09:50:13;9.8;92.4
38221;DHT22;24023;51.280;7.148;2023-03-14T09:55:12;9.4;90.3
38221;DHT22;24023;51.280;7.148;2023-03-14T10:00:16;9.4;90.3
38221;DHT22;24023;51.280;7.148;2023-03-14T10:05:15;8.8;88.7
38221;DHT22;24023;51.280;7.148;2023-03-14T10:10:11;8.8;90.8
38221;DHT22;24023;51.280;7.148;2023-03-14T10:15:10;8.8;90.8
38221;DHT22;24023;51.280;7.148;2023-03-14T10:20:27;8.6;88.3
38221;DHT22;24023;51.280;7.148;2023-03-14T10:25:25;8.6;88.3
38221;DHT22;24023;51.280;7.148;2023-03-14T10:30:29;8.5;90.4
38221;DHT22;24023;51.280;7.148;2023-03-14T10:35:18;8.5;90.4
38221;DHT22;24023;51.280;7.148;2023-03-14T10:40:13;8.5;89.0
38221;DHT22;24023;51.280;7.148;2023-03-14T10:45:25;8.5;89.0
38221;DHT22;24023;51.280;7.148;2023-03-14T10:50:24;8.2;86.9
38221;DHT22;24023;51.280;7.148;2023-03-14T10:55:11;8.3;89.2
38221;DHT22;24023;51.280;7.148;2023-03-14T11:00:16;8.3;89.2
38221;DHT22;24023;51.280;7.148;2023-03-14T11:05:15;8.3;90.0
38221;DHT22;24023;51.280;7.148;2023-03-14T11:10:17;8.3;90.0
38221;DHT22;24023;51.280;7.148;2023-03-14T11:15:17;8.6;87.7
38221;DHT22;24023;51.280;7.148;2023-03-14T11:20:22;8.6;87.7
38221;DHT22;24023;51.280;7.148;2023-03-14T11:25:14;7.7;85.7
38221;DHT22;24023;51.280;7.148;2023-03-14T11:30:19;7.9;87.8
38221;DHT22;24023;51.280;7.148;2023-03-14T11:35:15;8.0;82.8
38221;DHT22;24023;51.280;7.148;2023-03-14T11:40:14;8.0;84.6
38221;DHT22;24023;51.280;7.148;2023-03-14T11:45:17;7.9;82.2
38221;DHT22;24023;51.280;7.148;2023-03-14T11:50:17;7.5;83.3
38221;DHT22;24023;51.280;7.148;2023-03-14T11:55:11;7.5;83.3
38221;DHT22;24023;51.280;7.148;2023-03-14T12:00:16;7.6;83.5
38221;DHT22;24023;51.280;7.148;2023-03-14T12:05:31;7.5;81.4
38221;DHT22;24023;51.280;7.148;2023-03-14T12:10:09;7.5;81.5
38221;DHT22;24023;51.280;7.148;2023-03-14T12:15:19;7.4;83.6
38221;DHT22;24023;51.280;7.148;2023-03-14T12:20:16;7.6;80.9
38221;DHT22;24023;51.280;7.148;2023-03-14T12:25:15;7.6;80.9
38221;DHT22;24023;51.280;7.148;2023-03-14T12:30:18;7.7;78.1
38221;DHT22;24023;51.280;7.148;2023-03-14T12:35:33;7.6;80.6
38221;DHT22;24023;51.280;7.148;2023-03-14T12:40:15;7.6;80.6
38221;DHT22;24023;51.280;7.148;2023-03-14T12:45:27;7.9;78.8
38221;DHT22;24023;51.280;7.148;2023-03-14T12:50:14;8.0;81.1
38221;DHT22;24023;51.280;7.148;2023-03-14T12:55:12;9.1;76.8
38221;DHT22;24023;51.280;7.148;2023-03-14T13:00:18;9.2;73.9
38221;DHT22;24023;51.280;7.148;2023-03-14T13:05:13;8.9;73.2
38221;DHT22;24023;51.280;7.148;2023-03-14T13:10:18;8.5;78.8
38221;DHT22;24023;51.280;7.148;2023-03-14T13:15:17;8.3;77.0
38221;DHT22;24023;51.280;7.148;2023-03-14T13:20:13;7.7;78.1
38221;DHT22;24023;51.280;7.148;2023-03-14T13:25:10;7.4;80.7
38221;DHT22;24023;51.280;7.148;2023-03-14T13:30:16;7.4;80.7
38221;DHT22;24023;51.280;7.148;2023-03-14T13:35:15;7.4;83.9
38221;DHT22;24023;51.280;7.148;2023-03-14T13:40:19;8.2;78.7
38221;DHT22;24023;51.280;7.148;2023-03-14T13:45:13;8.2;78.7
38221;DHT22;24023;51.280;7.148;2023-03-14T13:55:15;6.7;76.7
38221;DHT22;24023;51.280;7.148;2023-03-14T14:05:10;7.6;78.8
38221;DHT22;24023;51.280;7.148;2023-03-14T14:10:10;8.0;76.4
38221;DHT22;24023;51.280;7.148;2023-03-14T14:15:11;9.6;71.1
38221;DHT22;24023;51.280;7.148;2023-03-14T14:20:13;10.3;68.6
38221;DHT22;24023;51.280;7.148;2023-03-14T14:25:13;10.9;63.1
38221;DHT22;24023;51.280;7.148;2023-03-14T14:30:27;10.5;64.9
38221;DHT22;24023;51.280;7.148;2023-03-14T14:35:10;9.1;67.5
38221;DHT22;24023;51.280;7.148;2023-03-14T14:40:16;9.1;67.5
38221;DHT22;24023;51.280;7.148;2023-03-14T14:45:13;8.9;67.2
38221;DHT22;24023;51.280;7.148;2023-03-14T14:50:21;8.5;70.1
38221;DHT22;24023;51.280;7.148;2023-03-14T14:55:13;8.6;67.5
38221;DHT22;24023;51.280;7.148;2023-03-14T15:00:19;8.4;68.2
38221;DHT22;24023;51.280;7.148;2023-03-14T15:05:12;8.4;65.3
38221;DHT22;24023;51.280;7.148;2023-03-14T15:10:10;8.4;63.7
38221;DHT22;24023;51.280;7.148;2023-03-14T15:15:10;8.3;58.1
38221;DHT22;24023;51.280;7.148;2023-03-14T15:20:12;8.1;55.6
38221;DHT22;24023;51.280;7.148;2023-03-14T15:25:08;8.2;56.2
38221;DHT22;24023;51.280;7.148;2023-03-14T15:30:11;8.1;56.3
38221;DHT22;24023;51.280;7.148;2023-03-14T15:35:07;8.1;53.4
38221;DHT22;24023;51.280;7.148;2023-03-14T15:40:15;8.1;55.6
38221;DHT22;24023;51.280;7.148;2023-03-14T15:45:11;8.1;55.6
38221;DHT22;24023;51.280;7.148;2023-03-14T15:50:12;8.2;58.0
38221;DHT22;24023;51.280;7.148;2023-03-14T15:55:07;8.3;55.5
38221;DHT22;24023;51.280;7.148;2023-03-14T16:00:15;7.8;54.2
38221;DHT22;24023;51.280;7.148;2023-03-14T16:05:08;7.8;56.1
38221;DHT22;24023;51.280;7.148;2023-03-14T16:10:11;7.8;56.1
38221;DHT22;24023;51.280;7.148;2023-03-14T16:15:09;7.8;56.1
38221;DHT22;24023;51.280;7.148;2023-03-14T16:20:10;7.9;56.0
38221;DHT22;24023;51.280;7.148;2023-03-14T16:25:07;7.9;56.0
38221;DHT22;24023;51.280;7.148;2023-03-14T16:30:10;7.5;56.3
38221;DHT22;24023;51.280;7.148;2023-03-14T16:35:08;7.4;54.2
38221;DHT22;24023;51.280;7.148;2023-03-14T16:40:09;7.4;54.6
38221;DHT22;24023;51.280;7.148;2023-03-14T16:45:10;7.4;54.6
38221;DHT22;24023;51.280;7.148;2023-03-14T16:50:09;7.4;54.6
38221;DHT22;24023;51.280;7.148;2023-03-14T16:55:08;7.3;53.5
38221;DHT22;24023;51.280;7.148;2023-03-14T17:00:13;7.3;56.7
38221;DHT22;24023;51.280;7.148;2023-03-14T17:05:07;7.2;58.6
38221;DHT22;24023;51.280;7.148;2023-03-14T17:10:09;7.1;60.7
38221;DHT22;24023;51.280;7.148;2023-03-14T17:15:09;7.1;54.0
38221;DHT22;24023;51.280;7.148;2023-03-14T17:20:10;7.1;54.0
38221;DHT22;24023;51.280;7.148;2023-03-14T17:25:07;6.9;53.7
38221;DHT22;24023;51.280;7.148;2023-03-14T17:30:11;6.8;55.9
38221;DHT22;24023;51.280;7.148;2023-03-14T17:35:07;6.9;53.5
38221;DHT22;24023;51.280;7.148;2023-03-14T17:40:10;7.0;56.5
38221;DHT22;24023;51.280;7.148;2023-03-14T17:45:12;6.9;53.6
38221;DHT22;24023;51.280;7.148;2023-03-14T17:50:10;7.0;55.5
38221;DHT22;24023;51.280;7.148;2023-03-14T17:55:08;7.0;55.5
38221;DHT22;24023;51.280;7.148;2023-03-14T18:00:14;6.8;56.2
38221;DHT22;24023;51.280;7.148;2023-03-14T18:05:08;6.8;56.5
38221;DHT22;24023;51.280;7.148;2023-03-14T18:10:10;6.9;55.9
38221;DHT22;24023;51.280;7.148;2023-03-14T18:15:09;6.7;56.9
38221;DHT22;24023;51.280;7.148;2023-03-14T18:20:10;6.8;56.3
38221;DHT22;24023;51.280;7.148;2023-03-14T18:25:08;6.6;57.1
38221;DHT22;24023;51.280;7.148;2023-03-14T18:30:12;6.7;54.3
38221;DHT22;24023;51.280;7.148;2023-03-14T18:35:07;6.5;56.1
38221;DHT22;24023;51.280;7.148;2023-03-14T18:40:11;6.4;54.2
38221;DHT22;24023;51.280;7.148;2023-03-14T18:45:11;6.4;56.4
38221;DHT22;24023;51.280;7.148;2023-03-14T18:50:10;6.2;56.5
38221;DHT22;24023;51.280;7.148;2023-03-14T18:55:07;6.2;54.1
38221;DHT22;24023;51.280;7.148;2023-03-14T19:00:14;6.1;55.7
38221;DHT22;24023;51.280;7.148;2023-03-14T19:05:08;6.2;56.1
38221;DHT22;24023;51.280;7.148;2023-03-14T19:10:10;6.2;56.1
38221;DHT22;24023;51.280;7.148;2023-03-14T19:15:09;6.1;57.7
38221;DHT22;24023;51.280;7.148;2023-03-14T19:20:10;6.0;59.7
38221;DHT22;24023;51.280;7.148;2023-03-14T19:25:08;5.9;61.8
38221;DHT22;24023;51.280;7.148;2023-03-14T19:30:10;5.9;61.8
38221;DHT22;24023;51.280;7.148;2023-03-14T19:35:07;5.4;66.8
38221;DHT22;24023;51.280;7.148;2023-03-14T19:40:10;5.3;62.6
38221;DHT22;24023;51.280;7.148;2023-03-14T19:45:11;5.6;59.2
38221;DHT22;24023;51.280;7.148;2023-03-14T19:50:10;5.6;59.2
38221;DHT22;24023;51.280;7.148;2023-03-14T19:55:07;5.6;59.2
38221;DHT22;24023;51.280;7.148;2023-03-14T20:00:17;5.7;57.7
38221;DHT22;24023;51.280;7.148;2023-03-14T20:05:07;5.7;57.7
38221;DHT22;24023;51.280;7.148;2023-03-14T20:10:09;5.8;60.0
38221;DHT22;24023;51.280;7.148;2023-03-14T20:15:09;5.8;60.0
38221;DHT22;24023;51.280;7.148;2023-03-14T20:20:10;5.8;60.0
38221;DHT22;24023;51.280;7.148;2023-03-14T20:25:08;5.7;59.6
38221;DHT22;24023;51.280;7.148;2023-03-14T20:30:13;5.3;63.0
38221;DHT22;24023;51.280;7.148;2023-03-14T20:35:08;5.3;59.8
38221;DHT22;24023;51.280;7.148;2023-03-14T20:40:10;5.3;59.8
38221;DHT22;24023;51.280;7.148;2023-03-14T20:45:10;5.3;62.0
38221;DHT22;24023;51.280;7.148;2023-03-14T20:50:09;5.3;62.0
38221;DHT22;24023;51.280;7.148;2023-03-14T20:55:08;5.0;62.8
38221;DHT22;24023;51.280;7.148;2023-03-14T21:00:12;5.0;60.6
38221;DHT22;24023;51.280;7.148;2023-03-14T21:05:08;4.8;60.9
38221;DHT22;24023;51.280;7.148;2023-03-14T21:10:10;4.7;63.4
38221;DHT22;24023;51.280;7.148;2023-03-14T21:15:10;4.6;63.9
38221;DHT22;24023;51.280;7.148;2023-03-14T21:20:10;3.7;68.3
38221;DHT22;24023;51.280;7.148;2023-03-14T21:25:07;3.4;70.4
38221;DHT22;24023;51.280;7.148;2023-03-14T21:30:11;3.4;70.4
38221;DHT22;24023;51.280;7.148;2023-03-14T21:35:07;3.1;72.5
38221;DHT22;24023;51.280;7.148;2023-03-14T21:40:10;2.6;74.7
38221;DHT22;24023;51.280;7.148;2023-03-14T21:45:12;2.7;74.0
38221;DHT22;24023;51.280;7.148;2023-03-14T21:50:10;2.7;74.0
38221;DHT22;24023;51.280;7.148;2023-03-14T21:55:07;2.7;74.9
38221;DHT22;24023;51.280;7.148;2023-03-14T22:00:14;2.7;74.9
38221;DHT22;24023;51.280;7.148;2023-03-14T22:05:10;2.5;75.1
38221;DHT22;24023;51.280;7.148;2023-03-14T22:10:13;2.5;75.1
38221;DHT22;24023;51.280;7.148;2023-03-14T22:15:11;3.0;73.1
38221;DHT22;24023;51.280;7.148;2023-03-14T22:20:12;3.0;73.1
38221;DHT22;24023;51.280;7.148;2023-03-14T22:25:08;3.0;73.1
38221;DHT22;24023;51.280;7.148;2023-03-14T22:30:10;2.9;73.3
38221;DHT22;24023;51.280;7.148;2023-03-14T22:35:07;2.9;73.3
38221;DHT22;24023;51.280;7.148;2023-03-14T22:40:09;2.9;74.6
38221;DHT22;24023;51.280;7.148;2023-03-14T22:45:09;2.9;72.5
38221;DHT22;24023;51.280;7.148;2023-03-14T22:50:09;3.0;74.6
38221;DHT22;24023;51.280;7.148;2023-03-14T22:55:08;3.2;72.2
38221;DHT22;24023;51.280;7.148;2023-03-14T23:00:19;3.2;72.2
38221;DHT22;24023;51.280;7.148;2023-03-14T23:05:08;3.2;72.2
38221;DHT22;24023;51.280;7.148;2023-03-14T23:10:09;3.5;69.9
38221;DHT22;24023;51.280;7.148;2023-03-14T23:15:09;4.1;67.5
38221;DHT22;24023;51.280;7.148;2023-03-14T23:20:10;4.1;67.5
38221;DHT22;24023;51.280;7.148;2023-03-14T23:25:07;4.0;67.6
38221;DHT22;24023;51.280;7.148;2023-03-14T23:30:11;4.0;67.6
38221;DHT22;24023;51.280;7.148;2023-03-14T23:35:07;4.0;67.6
38221;DHT22;24023;51.280;7.148;2023-03-14T23:40:09;4.5;67.6
38221;DHT22;24023;51.280;7.148;2023-03-14T23:45:13;4.5;67.6
38221;DHT22;24023;51.280;7.148;2023-03-14T23:50:09;4.3;66.6
38221;DHT22;24023;51.280;7.148;2023-03-14T23:55:07;4.3;67.2
